< < Back
Terminal Aerodrome Forecast


Current Version              Previous Versions:   1  2  3  4  5  6  7  8  9  

Terminal Aerodrome Forecast

149
FTUS44 KMRX 301105 AAA
TAFCHA
TAF AMD
KCHA 301105Z 3011/0106 00000KT 1/4SM FG VV001
     FM301300 VRB02KT 5SM BR FEW007
     FM301400 32004KT P6SM SCT250
     FM010100 00000KT P6SM SKC=

Latest METAR

371
SAUS80 KWBC 301400
MTRCHA
METAR KCHA 301353Z 00000KT 1/2SM FG VV002 18/17 A3000 RMK AO2 SLP152
T01780167


USA.gov is the U.S. government's official web portal to all federal, state and local government web resources and services.